createdAt,value
2018-02-06T00:00:24.221Z,77.02
2018-02-06T00:01:24.176Z,76.74
2018-02-06T00:03:16.993Z,76.83
2018-02-06T00:04:16.961Z,77.12
2018-02-06T00:06:10.162Z,77.21
2018-02-06T00:07:10.045Z,77.40
2018-02-06T00:09:02.962Z,76.93
2018-02-06T00:10:02.902Z,77.02
2018-02-06T00:11:55.708Z,77.40
2018-02-06T00:12:55.643Z,77.02
2018-02-06T00:14:48.569Z,77.21
2018-02-06T00:15:48.569Z,77.31
2018-02-06T00:17:41.695Z,77.50
2018-02-06T00:18:41.599Z,77.40
2018-02-06T00:20:34.559Z,76.74
2018-02-06T00:21:34.496Z,77.02
2018-02-06T00:23:27.446Z,76.93
2018-02-06T00:24:27.381Z,76.74
2018-02-06T00:26:20.578Z,76.55
2018-02-06T00:27:20.537Z,76.74
2018-02-06T00:29:13.490Z,76.83
2018-02-06T00:30:13.432Z,77.12
2018-02-06T00:32:06.378Z,77.02
2018-02-06T00:33:06.336Z,77.21
2018-02-06T00:34:59.222Z,76.74
2018-02-06T00:35:59.157Z,77.12
2018-02-06T00:37:52.121Z,77.21
2018-02-06T00:38:52.079Z,77.21
2018-02-06T00:40:45.029Z,77.40
2018-02-06T00:41:45.079Z,77.12
2018-02-06T00:43:38.228Z,77.12
2018-02-06T00:44:38.068Z,77.50
2018-02-06T00:46:31.022Z,77.69
2018-02-06T00:47:30.967Z,77.21
2018-02-06T00:49:23.934Z,77.78
2018-02-06T00:50:23.879Z,78.25
2018-02-06T00:52:16.694Z,77.69
2018-02-06T00:53:16.648Z,77.69
2018-02-06T00:55:09.467Z,77.59
2018-02-06T00:56:09.404Z,77.83
2018-02-06T00:58:02.392Z,78.59
2018-02-06T00:59:02.308Z,77.64
2018-02-06T01:00:55.257Z,78.12
2018-02-06T01:01:55.214Z,78.31
2018-02-06T01:03:48.147Z,78.02
2018-02-06T01:04:48.092Z,78.02
2018-02-06T01:06:40.903Z,78.12
2018-02-06T01:07:40.843Z,77.74
2018-02-06T01:09:33.849Z,77.26
2018-02-06T01:10:33.802Z,78.21
2018-02-06T01:12:26.767Z,77.55
2018-02-06T01:13:26.702Z,77.83
2018-02-06T01:15:19.647Z,78.31
2018-02-06T01:16:19.598Z,77.93
2018-02-06T01:18:12.421Z,78.87
2018-02-06T01:19:12.347Z,78.87
2018-02-06T01:21:05.337Z,78.97
2018-02-06T01:22:05.286Z,78.87
2018-02-06T01:23:58.250Z,79.25
2018-02-06T01:24:58.192Z,79.35
2018-02-06T01:26:51.157Z,78.68
2018-02-06T01:27:51.090Z,77.93
2018-02-06T01:29:43.897Z,78.78
2018-02-06T01:30:43.848Z,78.50
2018-02-06T01:32:36.672Z,78.78
2018-02-06T01:33:36.602Z,79.06
2018-02-06T01:35:29.534Z,78.59
2018-02-06T01:36:29.503Z,78.87
2018-02-06T01:38:22.456Z,78.40
2018-02-06T01:39:22.384Z,78.31
2018-02-06T01:41:15.521Z,78.31
2018-02-06T01:42:15.467Z,78.12
2018-02-06T01:44:08.432Z,78.78
2018-02-06T01:45:08.371Z,78.50
2018-02-06T01:47:01.346Z,78.87
2018-02-06T01:48:01.276Z,79.16
2018-02-06T01:49:54.556Z,79.25
2018-02-06T01:50:54.313Z,79.44
2018-02-06T01:52:47.171Z,79.35
2018-02-06T01:53:47.118Z,79.44
2018-02-06T01:55:40.077Z,79.91
2018-02-06T01:56:40.008Z,79.91
2018-02-06T01:58:32.972Z,79.63
2018-02-06T01:59:32.912Z,79.72
2018-02-06T02:01:25.702Z,79.82
2018-02-06T02:02:25.668Z,79.91
2018-02-06T02:04:18.528Z,80.10
2018-02-06T02:05:18.419Z,80.19
2018-02-06T02:07:11.362Z,80.48
2018-02-06T02:08:11.318Z,80.48
2018-02-06T02:10:04.293Z,80.66
2018-02-06T02:11:04.221Z,80.38
2018-02-06T02:12:57.448Z,80.38
2018-02-06T02:13:57.339Z,80.66
2018-02-06T02:15:50.304Z,81.14
2018-02-06T02:16:50.241Z,80.66
2018-02-06T02:18:43.175Z,80.66
2018-02-06T02:19:43.130Z,81.04
2018-02-06T02:21:36.357Z,81.04
2018-02-06T02:22:36.213Z,80.76
2018-02-06T02:24:29.018Z,80.95
2018-02-06T02:25:28.959Z,80.85
2018-02-06T02:27:21.753Z,80.85
2018-02-06T02:28:21.702Z,80.76
2018-02-06T02:30:14.533Z,81.14
2018-02-06T02:31:14.458Z,80.85
2018-02-06T02:33:07.437Z,81.04
2018-02-06T02:34:07.392Z,81.14
2018-02-06T02:36:00.498Z,81.42
2018-02-06T02:37:00.408Z,81.33
2018-02-06T02:38:53.362Z,81.61
2018-02-06T02:39:53.307Z,81.33
2018-02-06T04:39:56.879Z,78.06
2018-02-06T04:40:56.844Z,77.97
2018-02-06T04:42:49.782Z,78.06
2018-02-06T04:43:49.724Z,78.16
2018-02-06T04:45:42.539Z,78.06
2018-02-06T04:46:42.469Z,77.97
2018-02-06T04:48:35.450Z,78.06
2018-02-06T04:49:35.399Z,77.97
2018-02-06T04:51:28.526Z,78.44
2018-02-06T04:52:28.453Z,78.72
2018-02-06T04:54:21.414Z,78.16
2018-02-06T04:55:21.354Z,78.25
2018-02-06T04:57:14.282Z,78.16
2018-02-06T04:58:14.273Z,77.97
2018-02-06T05:00:07.407Z,78.06
2018-02-06T05:01:07.344Z,78.25
2018-02-06T05:03:00.144Z,78.16
2018-02-06T05:04:00.090Z,78.16
2018-02-06T05:05:53.089Z,78.25
2018-02-06T05:06:53.043Z,78.44
2018-02-06T05:08:46.269Z,78.06
2018-02-06T05:09:46.154Z,78.63
2018-02-06T05:11:38.947Z,79.48
2018-02-06T05:12:38.893Z,79.76
2018-02-06T05:14:31.872Z,79.76
2018-02-06T05:15:31.833Z,79.57
2018-02-06T05:17:24.732Z,80.05
2018-02-06T05:18:24.695Z,79.86
2018-02-06T05:20:17.509Z,80.14
2018-02-06T05:21:17.442Z,79.95
2018-02-06T05:23:10.260Z,79.86
2018-02-06T05:24:10.204Z,79.95
2018-02-06T05:26:03.182Z,79.57
2018-02-06T05:27:03.097Z,80.14
2018-02-06T05:28:56.069Z,79.82
2018-02-06T05:29:56.004Z,80.00
2018-02-06T05:31:49.137Z,79.91
2018-02-06T05:32:49.094Z,80.10
2018-02-06T05:34:42.073Z,80.29
2018-02-06T05:35:41.997Z,80.29
2018-02-06T05:37:34.961Z,80.10
2018-02-06T05:38:34.901Z,80.19
2018-02-06T05:40:28.134Z,80.10
2018-02-06T05:41:27.933Z,80.00
2018-02-06T05:43:20.899Z,80.29
2018-02-06T05:44:20.827Z,80.10
2018-02-06T05:46:13.823Z,80.29
2018-02-06T05:47:13.773Z,80.38
2018-02-06T05:49:06.949Z,80.38
2018-02-06T05:50:06.838Z,80.19
2018-02-06T05:51:59.648Z,80.85
2018-02-06T05:52:59.604Z,80.48
2018-02-06T05:54:52.687Z,79.72
2018-02-06T05:55:52.633Z,80.05
2018-02-06T05:57:45.819Z,79.44
2018-02-06T05:58:45.688Z,79.38
2018-02-06T06:00:38.625Z,79.38
2018-02-06T06:01:38.575Z,79.29
2018-02-06T06:03:31.539Z,79.29
2018-02-06T06:04:31.499Z,79.10
2018-02-06T06:06:24.680Z,79.10
2018-02-06T06:07:24.551Z,78.91
2018-02-06T06:09:17.488Z,79.29
2018-02-06T06:10:17.447Z,78.44
2018-02-06T06:12:10.270Z,78.16
2018-02-06T06:13:10.204Z,78.72
2018-02-06T06:15:03.499Z,79.10
2018-02-06T06:16:03.290Z,78.40
2018-02-06T06:17:56.261Z,78.12
2018-02-06T06:18:56.184Z,77.93
2018-02-06T06:20:49.144Z,78.12
2018-02-06T06:21:49.080Z,78.40
2018-02-06T06:23:42.277Z,77.97
2018-02-06T06:24:42.130Z,78.16
2018-02-06T06:26:35.065Z,78.34
2018-02-06T06:27:35.024Z,78.12
2018-02-06T06:29:28.006Z,78.02
2018-02-06T06:30:28.020Z,78.40
2018-02-06T06:32:21.202Z,78.16
2018-02-06T06:33:21.024Z,77.97
2018-02-06T06:35:13.974Z,78.06
2018-02-06T06:36:13.913Z,78.25
2018-02-06T06:38:06.858Z,78.34
2018-02-06T06:39:06.872Z,78.06
2018-02-06T06:40:59.980Z,78.06
2018-02-06T06:41:59.914Z,78.44
2018-02-06T06:43:52.859Z,78.16
2018-02-06T06:44:52.811Z,77.87
2018-02-06T06:46:45.782Z,78.16
2018-02-06T06:47:45.715Z,77.31
2018-02-06T06:49:38.796Z,78.63
2018-02-06T06:50:38.755Z,78.25
2018-02-06T06:52:31.580Z,77.87
2018-02-06T06:53:31.515Z,78.34
2018-02-06T06:55:24.470Z,77.97
2018-02-06T06:56:24.416Z,77.59
2018-02-06T06:58:17.352Z,77.87
2018-02-06T06:59:17.323Z,77.31
2018-02-06T07:01:10.194Z,77.87
2018-02-06T07:02:10.135Z,77.87
2018-02-06T07:04:03.044Z,78.34
2018-02-06T07:05:03.014Z,78.16
2018-02-06T07:06:55.971Z,78.16
2018-02-06T07:07:55.900Z,78.25
2018-02-06T07:09:48.874Z,78.16
2018-02-06T07:10:48.817Z,78.63
2018-02-06T07:12:41.739Z,78.34
2018-02-06T07:13:41.641Z,78.06
2018-02-06T07:15:34.574Z,78.16
2018-02-06T07:16:34.533Z,78.16
2018-02-06T07:18:27.345Z,78.16
2018-02-06T07:19:27.275Z,77.78
2018-02-06T07:21:20.215Z,78.44
2018-02-06T07:22:20.210Z,78.25
2018-02-06T07:24:13.342Z,78.72
2018-02-06T07:25:13.275Z,77.31
2018-02-06T07:27:06.195Z,78.16
2018-02-06T07:28:06.149Z,78.25
2018-02-06T07:29:59.119Z,78.06
2018-02-06T07:30:59.075Z,78.06
2018-02-06T07:32:52.171Z,78.53
2018-02-06T07:33:52.124Z,78.16
2018-02-06T07:35:44.936Z,77.78
2018-02-06T07:36:44.878Z,77.50
2018-02-06T07:38:37.820Z,77.78
2018-02-06T07:39:37.896Z,77.87
2018-02-06T07:41:31.117Z,77.50
2018-02-06T07:42:30.984Z,77.87
2018-02-06T07:44:23.945Z,77.78
2018-02-06T07:45:23.908Z,77.78
2018-02-06T07:47:16.913Z,77.69
2018-02-06T07:48:16.844Z,77.78
2018-02-06T07:50:09.999Z,77.69
2018-02-06T07:51:09.886Z,78.25
2018-02-06T07:53:02.699Z,77.87
2018-02-06T07:54:02.629Z,77.40
2018-02-06T07:55:55.601Z,77.59
2018-02-06T07:56:55.544Z,77.50
2018-02-06T07:58:48.666Z,77.31
2018-02-06T07:59:48.571Z,77.21
2018-02-06T08:01:41.547Z,77.02
2018-02-06T08:02:41.493Z,76.36
2018-02-06T08:04:34.449Z,77.12
2018-02-06T08:05:34.389Z,76.74
2018-02-06T08:07:27.659Z,76.83
2018-02-06T08:08:27.506Z,76.83
2018-02-06T08:10:20.444Z,76.74
2018-02-06T08:11:20.391Z,76.83
2018-02-06T08:13:13.430Z,76.07
2018-02-06T08:14:13.376Z,76.31
2018-02-06T08:16:06.205Z,76.50
2018-02-06T08:17:06.129Z,76.78
2018-02-06T08:18:59.081Z,76.12
2018-02-06T08:19:58.886Z,75.79
2018-02-06T08:21:51.861Z,76.74
2018-02-06T08:22:51.793Z,76.12
2018-02-06T08:24:45.127Z,75.89
2018-02-06T08:25:45.089Z,76.50
2018-02-06T08:27:38.090Z,76.40
2018-02-06T08:28:37.994Z,75.79
2018-02-06T08:30:30.948Z,75.93
2018-02-06T08:31:30.877Z,75.55
2018-02-06T08:33:23.704Z,75.79
2018-02-06T08:34:23.636Z,75.79
2018-02-06T08:36:16.826Z,75.79
2018-02-06T08:37:16.732Z,76.21
2018-02-06T08:39:09.721Z,76.50
2018-02-06T08:40:09.655Z,76.02
2018-02-06T08:42:02.463Z,75.93
2018-02-06T08:43:02.493Z,76.31
2018-02-06T08:44:55.223Z,75.26
2018-02-06T08:45:55.165Z,76.21
2018-02-06T08:47:48.321Z,74.60
2018-02-06T08:48:48.267Z,75.07
2018-02-06T08:50:41.206Z,75.17
2018-02-06T08:51:41.151Z,75.26
2018-02-06T08:53:34.142Z,74.98
2018-02-06T08:54:34.061Z,74.69
2018-02-06T08:56:26.944Z,74.98
2018-02-06T08:57:26.908Z,74.98
2018-02-06T08:59:19.863Z,75.36
2018-02-06T09:00:19.800Z,75.07
2018-02-06T09:02:12.743Z,74.79
2018-02-06T09:03:12.721Z,74.22
2018-02-06T09:05:05.681Z,73.69
2018-02-06T09:06:05.609Z,74.07
2018-02-06T09:07:58.458Z,73.32
2018-02-06T09:08:58.411Z,73.79
2018-02-06T09:10:51.407Z,72.94
2018-02-06T09:11:51.341Z,73.13
2018-02-06T09:13:44.296Z,73.41
2018-02-06T09:14:44.314Z,73.79
2018-02-06T09:16:37.575Z,74.17
2018-02-06T09:17:37.302Z,73.79
2018-02-06T09:19:30.226Z,72.94
2018-02-06T09:20:30.190Z,73.03
2018-02-06T09:22:23.190Z,72.66
2018-02-06T09:23:23.130Z,72.66
2018-02-06T09:25:16.370Z,72.50
2018-02-06T09:26:16.181Z,71.52
2018-02-06T09:28:09.166Z,71.80
2018-02-06T09:29:09.107Z,72.66
2018-02-06T09:31:02.067Z,72.12
2018-02-06T09:32:02.010Z,71.93
2018-02-06T09:33:55.181Z,71.17
2018-02-06T09:34:55.104Z,70.89
2018-02-06T09:36:48.055Z,71.17
2018-02-06T09:37:48.005Z,71.55
2018-02-06T09:39:40.941Z,71.46
2018-02-06T09:40:40.910Z,71.27
2018-02-06T09:42:33.726Z,70.70
2018-02-06T09:43:33.665Z,70.70
2018-02-06T09:45:26.501Z,70.79
2018-02-06T09:46:26.437Z,71.74
2018-02-06T09:48:19.376Z,72.22
2018-02-06T09:49:19.343Z,72.22
2018-02-06T09:51:12.267Z,71.55
2018-02-06T09:52:12.244Z,71.21
2018-02-06T09:54:05.216Z,70.74
2018-02-06T09:55:05.167Z,70.36
2018-02-06T09:56:58.242Z,70.17
2018-02-06T09:57:58.156Z,70.07
2018-02-06T09:59:51.106Z,69.51
2018-02-06T10:00:51.077Z,69.70
2018-02-06T10:02:43.887Z,70.04
2018-02-06T10:03:43.895Z,70.23
2018-02-06T10:05:37.061Z,70.51
2018-02-06T10:06:36.919Z,71.08
2018-02-06T10:08:29.958Z,70.64
2018-02-06T10:09:29.899Z,70.55
2018-02-06T10:11:22.726Z,70.74
2018-02-06T10:12:22.705Z,71.12
2018-02-06T10:14:15.481Z,69.98
2018-02-06T10:15:15.437Z,70.23
2018-02-06T10:17:08.516Z,71.36
2018-02-06T10:18:08.467Z,72.69
2018-02-06T10:20:01.489Z,72.22
2018-02-06T10:21:01.573Z,71.46
2018-02-06T10:22:54.360Z,71.36
2018-02-06T10:23:54.316Z,71.21
2018-02-06T10:25:47.168Z,71.50
2018-02-06T10:26:47.103Z,70.64
2018-02-06T10:28:40.195Z,70.83
2018-02-06T10:29:40.145Z,70.74
2018-02-06T10:31:33.103Z,70.45
2018-02-06T10:32:33.057Z,70.64
2018-02-06T10:34:26.227Z,70.64
2018-02-06T10:35:26.101Z,70.74
2018-02-06T10:37:19.022Z,70.07
2018-02-06T10:38:18.988Z,70.55
2018-02-06T10:40:11.963Z,69.60
2018-02-06T10:41:11.894Z,69.98
2018-02-06T10:43:05.046Z,70.26
2018-02-06T10:44:04.969Z,70.36
2018-02-06T10:45:57.934Z,70.07
2018-02-06T10:46:57.874Z,69.03
2018-02-06T10:48:50.818Z,68.84
2018-02-06T10:49:50.777Z,69.03
2018-02-06T10:51:43.959Z,70.07
2018-02-06T10:52:43.872Z,69.60
2018-02-06T10:54:36.831Z,69.95
2018-02-06T10:55:36.771Z,71.08
2018-02-06T10:57:29.742Z,71.12
2018-02-06T10:58:29.700Z,71.40
2018-02-06T11:00:22.486Z,70.83
2018-02-06T11:01:22.458Z,71.02
2018-02-06T11:03:15.621Z,70.74
2018-02-06T11:04:15.570Z,71.12
2018-02-06T11:06:08.648Z,71.31
2018-02-06T11:07:08.587Z,71.59
2018-02-06T11:09:01.390Z,71.21
2018-02-06T11:10:01.352Z,71.31
2018-02-06T11:11:54.313Z,71.31
2018-02-06T11:12:54.265Z,71.50
2018-02-06T11:14:47.196Z,71.31
2018-02-06T11:15:47.158Z,70.83
2018-02-06T11:17:40.157Z,71.59
2018-02-06T11:18:40.076Z,71.40
2018-02-06T11:20:32.888Z,70.83
2018-02-06T11:21:32.847Z,70.74
2018-02-06T11:23:25.827Z,70.64
2018-02-06T11:24:25.768Z,70.83
2018-02-06T11:26:18.745Z,70.93
2018-02-06T11:27:18.703Z,71.02
2018-02-06T11:29:11.657Z,71.21
2018-02-06T11:30:11.613Z,71.40
2018-02-06T11:32:04.572Z,71.40
2018-02-06T11:33:04.397Z,71.21
2018-02-06T11:34:57.493Z,70.55
2018-02-06T11:35:57.442Z,71.02
2018-02-06T11:37:50.416Z,70.74
2018-02-06T11:38:50.363Z,70.74
2018-02-06T11:40:43.447Z,71.69
2018-02-06T11:41:43.267Z,71.69
2018-02-06T11:43:36.220Z,71.12
2018-02-06T11:44:36.180Z,71.21
2018-02-06T11:46:29.103Z,71.21
2018-02-06T11:47:29.149Z,71.21
2018-02-06T11:49:22.358Z,71.50
2018-02-06T11:50:22.172Z,71.40
2018-02-06T11:52:15.182Z,71.21
2018-02-06T11:53:15.099Z,71.59
2018-02-06T11:55:07.942Z,72.06
2018-02-06T11:56:07.866Z,73.01
2018-02-06T11:58:01.261Z,73.30
2018-02-06T11:59:00.762Z,73.20
2018-02-06T12:00:54.718Z,72.82
2018-02-06T12:01:54.537Z,72.63
2018-02-06T12:03:47.393Z,72.73
2018-02-06T12:04:47.311Z,72.53
2018-02-06T12:06:40.282Z,72.16
2018-02-06T12:07:40.232Z,71.88
2018-02-06T12:09:33.194Z,71.50
2018-02-06T12:10:33.128Z,72.34
2018-02-06T12:12:25.947Z,72.06
2018-02-06T12:13:25.921Z,72.25
2018-02-06T12:15:18.798Z,72.16
2018-02-06T12:16:18.724Z,71.97
2018-02-06T12:18:11.677Z,72.16
2018-02-06T12:19:11.608Z,72.06
2018-02-06T12:21:04.558Z,72.34
2018-02-06T12:22:04.517Z,71.69
2018-02-06T12:23:57.783Z,72.06
2018-02-06T12:24:57.572Z,72.06
2018-02-06T12:26:50.521Z,72.53
2018-02-06T12:27:50.475Z,72.06
2018-02-06T12:29:43.426Z,72.82
2018-02-06T12:30:43.386Z,72.53
2018-02-06T12:32:36.171Z,71.78
2018-02-06T12:33:36.118Z,71.88
2018-02-06T12:35:28.941Z,72.34
2018-02-06T12:36:28.892Z,72.82
2018-02-06T12:38:21.827Z,73.01
2018-02-06T12:39:21.681Z,73.30
2018-02-06T12:41:14.662Z,74.43
2018-02-06T12:42:14.617Z,74.43
2018-02-06T12:44:07.574Z,74.33
2018-02-06T12:45:07.528Z,74.33
2018-02-06T12:47:00.316Z,73.77
2018-02-06T12:48:00.284Z,74.62
2018-02-06T12:49:53.383Z,75.19
2018-02-06T12:50:53.153Z,75.09
2018-02-06T12:52:46.133Z,75.95
2018-02-06T12:53:46.087Z,76.14
2018-02-06T12:55:38.938Z,76.32
2018-02-06T12:56:38.920Z,76.51
2018-02-06T12:58:31.824Z,76.80
2018-02-06T13:01:24.672Z,77.18
2018-02-06T13:02:24.605Z,77.27
2018-02-06T13:04:17.548Z,76.80
2018-02-06T13:05:17.508Z,76.89
2018-02-06T13:07:10.479Z,77.65
2018-02-06T13:08:10.408Z,77.56
2018-02-06T13:10:03.569Z,77.18
2018-02-06T13:11:03.508Z,77.56
2018-02-06T13:12:56.325Z,77.65
2018-02-06T13:13:56.268Z,77.37
2018-02-06T13:15:49.224Z,77.37
2018-02-06T13:16:49.168Z,77.04
2018-02-06T13:18:42.139Z,77.99
2018-02-06T13:19:42.078Z,79.45
2018-02-06T13:21:34.934Z,78.41
2018-02-06T13:22:34.861Z,78.08
2018-02-06T13:24:27.820Z,78.56
2018-02-06T13:25:27.788Z,78.50
2018-02-06T13:27:20.786Z,79.26
2018-02-06T13:28:20.735Z,79.55
2018-02-06T13:30:13.678Z,79.26
2018-02-06T13:31:13.625Z,79.26
2018-02-06T13:33:06.437Z,78.98
2018-02-06T13:34:06.377Z,78.65
2018-02-06T13:35:59.335Z,80.17
2018-02-06T13:36:59.279Z,79.93
2018-02-06T13:38:52.242Z,79.93
2018-02-06T13:39:52.181Z,80.49
2018-02-06T13:41:45.147Z,80.87
2018-02-06T13:42:45.084Z,80.40
2018-02-06T13:44:37.913Z,81.30
2018-02-06T13:45:37.857Z,81.59
2018-02-06T13:47:30.787Z,82.91
2018-02-06T13:48:30.760Z,83.95
2018-02-06T13:50:23.585Z,85.00
2018-02-06T13:51:23.541Z,85.09
2018-02-06T13:53:16.479Z,85.14
2018-02-06T13:54:16.437Z,85.33
2018-02-06T13:56:09.568Z,86.18
2018-02-06T13:57:09.521Z,86.37
2018-02-06T13:59:02.358Z,87.41
2018-02-06T14:00:02.271Z,88.83
2018-02-06T14:01:55.079Z,88.45
2018-02-06T14:02:55.040Z,88.26
2018-02-06T14:04:47.974Z,89.12
2018-02-06T14:05:47.914Z,89.78
2018-02-06T14:07:41.169Z,89.40
2018-02-06T14:08:41.030Z,89.40
2018-02-06T14:10:33.987Z,90.34
2018-02-06T14:11:33.917Z,90.63
2018-02-06T14:13:26.721Z,92.05
2018-02-06T14:14:26.684Z,92.05
2018-02-06T14:16:19.974Z,92.61
2018-02-06T14:17:19.777Z,92.90
2018-02-06T14:19:12.719Z,92.61
2018-02-06T14:20:12.680Z,92.85
2018-02-06T14:22:05.513Z,93.18
2018-02-06T14:23:05.424Z,94.23
2018-02-06T14:24:58.391Z,93.66
2018-02-06T14:25:58.328Z,93.61
2018-02-06T14:27:51.457Z,93.66
2018-02-06T14:28:51.390Z,94.27
2018-02-06T14:30:44.314Z,94.23
2018-02-06T14:31:44.284Z,93.75
2018-02-06T14:33:37.260Z,93.85
2018-02-06T14:34:37.174Z,93.09
2018-02-06T14:36:30.016Z,93.66
2018-02-06T14:37:29.937Z,93.94
2018-02-06T14:39:22.915Z,93.94
2018-02-06T14:40:22.742Z,94.23
2018-02-06T14:42:15.581Z,94.37
2018-02-06T14:43:15.471Z,94.93
2018-02-06T14:45:08.413Z,94.46
2018-02-06T14:46:08.388Z,94.46
2018-02-06T14:48:01.344Z,94.65
2018-02-06T14:49:01.280Z,95.21
2018-02-06T14:50:54.198Z,95.21
2018-02-06T14:51:54.159Z,95.12
2018-02-06T14:53:47.142Z,95.59
2018-02-06T14:54:47.072Z,95.88
2018-02-06T14:56:40.025Z,95.31
2018-02-06T14:57:40.014Z,95.78
2018-02-06T14:59:32.814Z,95.93
2018-02-06T15:00:32.745Z,95.93
2018-02-06T15:02:25.558Z,95.93
2018-02-06T15:03:25.513Z,95.93
2018-02-06T15:05:18.559Z,96.12
2018-02-06T15:06:18.470Z,95.93
2018-02-06T15:08:11.417Z,95.93
2018-02-06T15:09:11.387Z,95.64
2018-02-06T15:11:04.373Z,95.17
2018-02-06T15:12:04.294Z,94.98
2018-02-06T15:13:57.173Z,95.07
2018-02-06T15:14:57.110Z,95.26
2018-02-06T15:16:50.083Z,95.55
2018-02-06T15:17:50.017Z,95.26
2018-02-06T15:19:42.979Z,95.17
2018-02-06T15:20:42.914Z,95.07
2018-02-06T15:22:36.263Z,95.26
2018-02-06T15:23:36.038Z,96.02
2018-02-06T15:25:28.999Z,95.55
2018-02-06T15:26:28.945Z,95.36
2018-02-06T15:28:21.910Z,95.45
2018-02-06T15:29:21.902Z,95.17
2018-02-06T15:31:15.144Z,95.45
2018-02-06T15:32:14.953Z,95.17
2018-02-06T15:34:07.887Z,95.36
2018-02-06T15:35:07.846Z,95.17
2018-02-06T15:37:00.832Z,94.98
2018-02-06T15:38:00.784Z,95.36
2018-02-06T15:39:53.938Z,94.42
2018-02-06T15:40:53.885Z,95.17
2018-02-06T15:42:46.868Z,94.42
2018-02-06T15:43:46.816Z,94.32
2018-02-06T15:45:39.768Z,95.26
2018-02-06T15:46:39.710Z,94.70
2018-02-06T15:48:32.813Z,95.07
2018-02-06T15:49:32.729Z,94.89
2018-02-06T15:51:25.664Z,95.45
2018-02-06T15:52:25.620Z,95.07
2018-02-06T15:54:18.544Z,95.26
2018-02-06T15:55:18.520Z,95.07
2018-02-06T15:57:11.327Z,95.83
2018-02-06T15:58:11.284Z,95.93
2018-02-06T16:00:04.062Z,96.88
2018-02-06T16:01:04.023Z,96.50
2018-02-06T16:02:56.872Z,96.88
2018-02-06T16:03:56.773Z,96.83
2018-02-06T16:05:49.839Z,96.64
2018-02-06T16:06:49.937Z,96.73
2018-02-06T16:08:42.760Z,96.92
2018-02-06T16:09:42.715Z,97.67
2018-02-06T16:11:35.494Z,97.11
2018-02-06T16:12:35.461Z,97.49
2018-02-06T16:14:28.510Z,97.77
2018-02-06T16:15:28.415Z,97.20
2018-02-06T16:17:21.185Z,97.96
2018-02-06T16:18:21.159Z,97.77
2018-02-06T16:20:14.100Z,97.82
2018-02-06T16:21:14.040Z,97.30
2018-02-06T16:23:07.220Z,96.92
2018-02-06T16:24:07.105Z,97.11
2018-02-06T16:26:00.077Z,97.96
2018-02-06T16:27:00.040Z,97.86
2018-02-06T16:28:53.020Z,97.86
2018-02-06T16:29:52.941Z,97.86
2018-02-06T16:31:46.059Z,97.01
2018-02-06T16:32:46.026Z,97.96
2018-02-06T16:34:38.965Z,98.05
2018-02-06T16:35:38.908Z,98.05
2018-02-06T16:37:31.860Z,98.52
2018-02-06T16:38:31.820Z,98.33
2018-02-06T16:40:24.886Z,98.33
2018-02-06T16:41:24.691Z,97.96
2018-02-06T16:43:17.622Z,98.14
2018-02-06T16:44:17.575Z,98.14
2018-02-06T16:46:10.551Z,97.49
2018-02-06T16:47:10.470Z,97.96
2018-02-06T16:49:03.418Z,98.81
2018-02-06T16:50:03.367Z,98.90
2018-02-06T16:51:56.275Z,98.62
2018-02-06T16:52:56.182Z,98.90
2018-02-06T16:54:49.108Z,98.14
2018-02-06T16:55:49.079Z,98.05
2018-02-06T16:57:42.043Z,98.24
2018-02-06T16:58:42.045Z,98.43
2018-02-06T17:00:35.090Z,98.52
2018-02-06T17:01:35.000Z,98.52
2018-02-06T17:03:28.909Z,97.49
2018-02-06T17:04:27.894Z,97.77
2018-02-06T17:06:20.880Z,97.67
2018-02-06T17:07:20.828Z,97.77
2018-02-06T17:09:13.752Z,97.11
2018-02-06T17:10:13.719Z,97.11
2018-02-06T17:12:06.571Z,97.49
2018-02-06T17:13:06.498Z,98.14
2018-02-06T17:14:59.477Z,96.83
2018-02-06T17:15:59.430Z,96.54
2018-02-06T17:17:52.448Z,96.73
2018-02-06T17:18:52.335Z,97.11
2018-02-06T17:20:45.486Z,96.64
2018-02-06T17:21:45.420Z,97.11
2018-02-06T17:23:38.408Z,97.30
2018-02-06T17:24:38.338Z,96.83
2018-02-06T17:26:31.288Z,96.83
2018-02-06T17:27:31.300Z,96.54
2018-02-06T17:29:24.510Z,96.73
2018-02-06T17:30:24.342Z,96.73
2018-02-06T17:32:18.345Z,96.83
2018-02-06T17:33:18.270Z,96.64
2018-02-06T17:35:11.251Z,96.92
2018-02-06T17:36:11.181Z,96.69
2018-02-06T17:38:04.058Z,96.40
2018-02-06T17:39:04.011Z,96.50
2018-02-06T17:40:56.970Z,96.78
2018-02-06T17:41:56.915Z,96.26
2018-02-06T17:43:49.901Z,97.11
2018-02-06T17:44:49.841Z,96.92
2018-02-06T17:46:43.033Z,97.11
2018-02-06T17:47:42.990Z,97.20
2018-02-06T17:49:35.963Z,97.20
2018-02-06T17:50:35.880Z,97.96
2018-02-06T17:52:28.679Z,97.11
2018-02-06T17:53:28.641Z,97.86
2018-02-06T17:55:21.670Z,97.86
2018-02-06T17:56:21.595Z,97.30
2018-02-06T17:58:14.546Z,97.01
2018-02-06T17:59:14.431Z,97.96
2018-02-06T18:01:07.402Z,97.49
2018-02-06T18:02:07.343Z,98.14
2018-02-06T18:04:00.281Z,97.86
2018-02-06T18:05:00.244Z,97.01
2018-02-06T18:06:53.423Z,97.67
2018-02-06T18:07:53.339Z,97.30
2018-02-06T18:09:46.331Z,97.77
2018-02-06T18:10:46.275Z,97.96
2018-02-06T18:12:39.070Z,97.58
2018-02-06T18:13:38.995Z,97.86
2018-02-06T18:15:31.970Z,97.49
2018-02-06T18:16:31.909Z,97.77
2018-02-06T18:18:25.014Z,98.05
2018-02-06T18:19:24.930Z,97.77
2018-02-06T18:21:17.885Z,98.05
2018-02-06T18:22:17.838Z,97.86
2018-02-06T18:24:10.800Z,97.86
2018-02-06T18:25:10.779Z,97.96
2018-02-06T18:27:03.542Z,98.05
2018-02-06T18:28:03.507Z,97.67
2018-02-06T18:29:56.515Z,97.67
2018-02-06T18:30:56.469Z,98.05
2018-02-06T18:32:49.422Z,98.05
2018-02-06T18:33:49.395Z,97.67
2018-02-06T18:35:42.332Z,97.20
2018-02-06T18:36:42.252Z,97.20
2018-02-06T18:38:35.069Z,97.67
2018-02-06T18:39:35.001Z,97.49
2018-02-06T18:41:28.015Z,97.86
2018-02-06T18:42:27.927Z,97.67
2018-02-06T18:44:21.887Z,97.67
2018-02-06T18:45:21.845Z,97.49
2018-02-06T18:47:14.805Z,97.96
2018-02-06T18:48:14.746Z,97.96
2018-02-06T18:50:07.686Z,97.30
2018-02-06T18:51:07.646Z,98.14
2018-02-06T18:53:00.619Z,98.24
2018-02-06T18:54:00.572Z,97.77
2018-02-06T18:55:53.511Z,98.05
2018-02-06T18:56:53.486Z,98.05
2018-02-06T18:58:46.590Z,97.77
2018-02-06T18:59:46.520Z,97.30
2018-02-06T19:01:39.476Z,97.67
2018-02-06T19:02:39.433Z,97.77
2018-02-06T19:04:32.400Z,97.49
2018-02-06T19:05:32.347Z,97.77
2018-02-06T19:07:25.151Z,97.58
2018-02-06T19:08:25.129Z,97.77
2018-02-06T19:10:18.045Z,97.67
2018-02-06T19:11:17.885Z,97.77
2018-02-06T19:13:10.851Z,97.77
2018-02-06T19:14:10.759Z,97.30
2018-02-06T19:16:03.803Z,97.77
2018-02-06T19:17:03.736Z,97.58
2018-02-06T19:18:56.984Z,97.77
2018-02-06T19:19:56.829Z,97.77
2018-02-06T19:21:49.787Z,97.96
2018-02-06T19:22:49.735Z,97.86
2018-02-06T19:24:42.727Z,98.10
2018-02-06T19:25:42.676Z,97.67
2018-02-06T19:27:35.775Z,97.77
2018-02-06T19:28:35.743Z,97.77
2018-02-06T19:30:28.711Z,98.14
2018-02-06T19:31:28.645Z,97.77
2018-02-06T19:33:21.590Z,97.96
2018-02-06T19:34:21.561Z,97.58
2018-02-06T19:36:14.622Z,98.05
2018-02-06T19:37:14.484Z,98.05
2018-02-06T19:39:07.402Z,98.52
2018-02-06T19:40:07.371Z,98.14
2018-02-06T19:42:00.172Z,98.05
2018-02-06T19:43:00.106Z,98.33
2018-02-06T19:44:53.079Z,98.14
2018-02-06T19:45:53.052Z,98.33
2018-02-06T19:47:45.869Z,98.43
2018-02-06T19:48:45.805Z,98.43
2018-02-06T19:50:38.791Z,98.43
2018-02-06T19:51:38.736Z,98.05
2018-02-06T19:53:31.730Z,98.33
2018-02-06T19:54:31.673Z,98.24
2018-02-06T19:56:24.661Z,98.14
2018-02-06T19:57:24.576Z,98.90
2018-02-06T19:59:17.370Z,98.43
2018-02-06T20:00:17.329Z,98.33
2018-02-06T20:02:10.250Z,98.14
2018-02-06T20:03:10.050Z,97.86
2018-02-06T20:05:03.012Z,97.49
2018-02-06T20:06:02.950Z,98.14
2018-02-06T20:07:55.946Z,97.49
2018-02-06T20:08:55.875Z,97.86
2018-02-06T20:10:49.126Z,98.05
2018-02-06T20:11:48.984Z,97.67
2018-02-06T20:13:41.971Z,98.05
2018-02-06T20:14:41.910Z,98.05
2018-02-06T20:16:34.840Z,97.86
2018-02-06T20:17:34.815Z,97.91
2018-02-06T20:19:27.989Z,97.96
2018-02-06T20:20:27.912Z,97.96
2018-02-06T20:22:20.863Z,97.58
2018-02-06T20:23:20.828Z,97.86
2018-02-06T20:25:13.842Z,98.01
2018-02-06T20:26:13.772Z,97.77
2018-02-06T20:28:06.582Z,97.96
2018-02-06T20:29:06.525Z,97.49
2018-02-06T20:30:59.556Z,97.91
2018-02-06T20:31:59.493Z,97.86